TimeEST,TemperatureF,Dew PointF,Humidity,Sea Level PressureIn,VisibilityMPH,Wind Direction,Wind SpeedMPH,Gust SpeedMPH,PrecipitationIn,Events,Conditions,WindDirDegrees,DateUTC
12:53 AM,36.0,19.9,52,30.45,10.0,North,10.4,-,N/A,,Clear,10,2013-11-04 05:53:00
1:53 AM,36.0,19.9,52,30.47,10.0,North,10.4,-,N/A,,Clear,10,2013-11-04 06:53:00
2:53 AM,35.1,19.9,54,30.48,10.0,North,10.4,18.4,N/A,,Clear,10,2013-11-04 07:53:00
3:53 AM,35.1,19.9,54,30.51,10.0,NNE,10.4,-,N/A,,Clear,20,2013-11-04 08:53:00
4:53 AM,35.1,19.9,54,30.53,10.0,NNE,12.7,-,N/A,,Clear,30,2013-11-04 09:53:00
5:53 AM,35.1,19.9,54,30.56,10.0,NNE,11.5,19.6,N/A,,Clear,20,2013-11-04 10:53:00
6:53 AM,35.1,19.9,54,30.58,10.0,NNE,13.8,18.4,N/A,,Clear,30,2013-11-04 11:53:00
7:53 AM,37.9,21.0,51,30.60,10.0,NNE,10.4,19.6,N/A,,Clear,30,2013-11-04 12:53:00
8:53 AM,39.9,21.9,49,30.61,10.0,NNE,15.0,25.3,N/A,,Clear,30,2013-11-04 13:53:00
9:53 AM,43.0,23.0,45,30.62,10.0,NE,15.0,20.7,N/A,,Clear,40,2013-11-04 14:53:00
10:53 AM,44.1,21.0,40,30.65,10.0,NE,13.8,-,N/A,,Clear,40,2013-11-04 15:53:00
11:53 AM,45.0,18.0,34,30.63,10.0,NE,10.4,18.4,N/A,,Clear,40,2013-11-04 16:53:00
12:53 PM,46.0,19.0,34,30.61,10.0,NNE,10.4,-,N/A,,Clear,30,2013-11-04 17:53:00
1:53 PM,45.0,19.0,36,30.62,10.0,NNE,12.7,-,N/A,,Clear,20,2013-11-04 18:53:00
2:53 PM,45.0,19.0,36,30.63,10.0,Variable,6.9,-,N/A,,Clear,0,2013-11-04 19:53:00
3:53 PM,44.1,21.0,40,30.64,10.0,NNE,8.1,-,N/A,,Clear,30,2013-11-04 20:53:00
4:53 PM,37.0,21.0,52,30.66,10.0,Calm,Calm,-,N/A,,Clear,0,2013-11-04 21:53:00
5:53 PM,28.0,18.0,66,30.67,10.0,Calm,Calm,-,N/A,,Clear,0,2013-11-04 22:53:00
6:53 PM,27.0,17.1,66,30.68,10.0,Calm,Calm,-,N/A,,Clear,0,2013-11-04 23:53:00
7:53 PM,25.0,16.0,69,30.68,10.0,Calm,Calm,-,N/A,,Clear,0,2013-11-05 00:53:00
8:53 PM,25.0,17.1,72,30.68,10.0,Calm,Calm,-,N/A,,Clear,0,2013-11-05 01:53:00
9:53 PM,25.0,18.0,75,30.68,10.0,Calm,Calm,-,N/A,,Clear,0,2013-11-05 02:53:00
10:53 PM,28.0,19.9,72,30.68,10.0,NE,3.5,-,N/A,,Overcast,50,2013-11-05 03:53:00
11:53 PM,41.0,28.9,62,30.68,10.0,NE,5.8,-,N/A,,Overcast,50,2013-11-05 04:53:00